sensor_id;sensor_type;location;lat;lon;timestamp;P1;durP1;ratioP1;P2;durP2;ratioP2
20230;SDS011;10274;49.022;9.338;2022-12-13T00:00:02;5.63;;;4.10;;
20230;SDS011;10274;49.022;9.338;2022-12-13T00:02:30;7.20;;;5.03;;
20230;SDS011;10274;49.022;9.338;2022-12-13T00:04:57;5.60;;;3.73;;
20230;SDS011;10274;49.022;9.338;2022-12-13T00:07:23;5.27;;;3.37;;
20230;SDS011;10274;49.022;9.338;2022-12-13T00:09:50;8.03;;;4.90;;
20230;SDS011;10274;49.022;9.338;2022-12-13T00:12:17;9.17;;;4.63;;
20230;SDS011;10274;49.022;9.338;2022-12-13T00:14:45;6.20;;;4.80;;
20230;SDS011;10274;49.022;9.338;2022-12-13T00:17:11;7.77;;;4.07;;
20230;SDS011;10274;49.022;9.338;2022-12-13T00:19:38;8.17;;;4.77;;
20230;SDS011;10274;49.022;9.338;2022-12-13T00:22:05;8.43;;;5.00;;
20230;SDS011;10274;49.022;9.338;2022-12-13T00:24:31;6.00;;;3.40;;
20230;SDS011;10274;49.022;9.338;2022-12-13T00:26:58;7.77;;;3.87;;
20230;SDS011;10274;49.022;9.338;2022-12-13T00:29:25;5.23;;;3.73;;
20230;SDS011;10274;49.022;9.338;2022-12-13T00:31:53;7.00;;;3.83;;
20230;SDS011;10274;49.022;9.338;2022-12-13T00:34:20;7.23;;;3.07;;
20230;SDS011;10274;49.022;9.338;2022-12-13T00:36:47;4.33;;;3.30;;
20230;SDS011;10274;49.022;9.338;2022-12-13T00:39:14;6.27;;;4.00;;
20230;SDS011;10274;49.022;9.338;2022-12-13T00:41:41;6.50;;;4.43;;
20230;SDS011;10274;49.022;9.338;2022-12-13T00:44:09;7.10;;;3.97;;
20230;SDS011;10274;49.022;9.338;2022-12-13T00:46:36;7.93;;;4.70;;
20230;SDS011;10274;49.022;9.338;2022-12-13T00:49:05;5.83;;;4.47;;
20230;SDS011;10274;49.022;9.338;2022-12-13T00:51:32;6.43;;;3.60;;
20230;SDS011;10274;49.022;9.338;2022-12-13T00:54:00;7.53;;;3.57;;
20230;SDS011;10274;49.022;9.338;2022-12-13T00:56:28;5.03;;;2.97;;
20230;SDS011;10274;49.022;9.338;2022-12-13T00:58:56;8.13;;;4.23;;
20230;SDS011;10274;49.022;9.338;2022-12-13T01:01:24;5.80;;;3.30;;
20230;SDS011;10274;49.022;9.338;2022-12-13T01:03:52;3.67;;;2.77;;
20230;SDS011;10274;49.022;9.338;2022-12-13T01:06:22;6.33;;;4.20;;
20230;SDS011;10274;49.022;9.338;2022-12-13T01:08:54;5.60;;;3.77;;
20230;SDS011;10274;49.022;9.338;2022-12-13T01:11:21;8.17;;;4.23;;
20230;SDS011;10274;49.022;9.338;2022-12-13T01:13:48;8.03;;;5.17;;
20230;SDS011;10274;49.022;9.338;2022-12-13T01:16:14;8.40;;;4.37;;
20230;SDS011;10274;49.022;9.338;2022-12-13T01:18:42;9.90;;;5.00;;
20230;SDS011;10274;49.022;9.338;2022-12-13T01:21:10;5.47;;;3.57;;
20230;SDS011;10274;49.022;9.338;2022-12-13T01:23:40;6.17;;;4.40;;
20230;SDS011;10274;49.022;9.338;2022-12-13T01:26:08;6.47;;;4.03;;
20230;SDS011;10274;49.022;9.338;2022-12-13T01:28:37;7.37;;;3.93;;
20230;SDS011;10274;49.022;9.338;2022-12-13T01:31:05;7.37;;;4.73;;
20230;SDS011;10274;49.022;9.338;2022-12-13T01:33:33;7.27;;;3.93;;
20230;SDS011;10274;49.022;9.338;2022-12-13T01:36:00;6.63;;;4.43;;
20230;SDS011;10274;49.022;9.338;2022-12-13T01:38:28;8.43;;;5.03;;
20230;SDS011;10274;49.022;9.338;2022-12-13T01:40:56;10.27;;;5.77;;
20230;SDS011;10274;49.022;9.338;2022-12-13T01:43:24;7.00;;;4.60;;
20230;SDS011;10274;49.022;9.338;2022-12-13T01:45:53;9.30;;;6.00;;
20230;SDS011;10274;49.022;9.338;2022-12-13T01:48:21;9.17;;;5.87;;
20230;SDS011;10274;49.022;9.338;2022-12-13T01:50:52;7.27;;;4.67;;
20230;SDS011;10274;49.022;9.338;2022-12-13T01:53:24;10.63;;;5.63;;
20230;SDS011;10274;49.022;9.338;2022-12-13T01:55:55;7.97;;;4.97;;
20230;SDS011;10274;49.022;9.338;2022-12-13T01:58:27;10.73;;;6.53;;
20230;SDS011;10274;49.022;9.338;2022-12-13T02:00:54;9.63;;;6.60;;
20230;SDS011;10274;49.022;9.338;2022-12-13T02:03:21;8.83;;;4.93;;
20230;SDS011;10274;49.022;9.338;2022-12-13T02:05:50;9.13;;;6.00;;
20230;SDS011;10274;49.022;9.338;2022-12-13T02:08:21;9.70;;;5.83;;
20230;SDS011;10274;49.022;9.338;2022-12-13T02:10:49;11.73;;;5.60;;
20230;SDS011;10274;49.022;9.338;2022-12-13T02:13:17;8.40;;;5.10;;
20230;SDS011;10274;49.022;9.338;2022-12-13T02:15:46;9.17;;;5.13;;
20230;SDS011;10274;49.022;9.338;2022-12-13T02:18:25;8.67;;;5.70;;
20230;SDS011;10274;49.022;9.338;2022-12-13T02:21:10;6.47;;;4.37;;
20230;SDS011;10274;49.022;9.338;2022-12-13T02:24:00;7.43;;;5.23;;
20230;SDS011;10274;49.022;9.338;2022-12-13T02:27:01;11.10;;;7.13;;
20230;SDS011;10274;49.022;9.338;2022-12-13T02:32:33;8.33;;;5.63;;
20230;SDS011;10274;49.022;9.338;2022-12-13T02:35:06;7.03;;;5.00;;
20230;SDS011;10274;49.022;9.338;2022-12-13T02:37:41;7.03;;;4.53;;
20230;SDS011;10274;49.022;9.338;2022-12-13T02:40:18;10.43;;;5.90;;
20230;SDS011;10274;49.022;9.338;2022-12-13T02:42:50;10.83;;;6.80;;
20230;SDS011;10274;49.022;9.338;2022-12-13T02:45:25;9.80;;;5.43;;
20230;SDS011;10274;49.022;9.338;2022-12-13T02:47:57;10.50;;;6.53;;
20230;SDS011;10274;49.022;9.338;2022-12-13T02:50:26;8.97;;;5.10;;
20230;SDS011;10274;49.022;9.338;2022-12-13T02:52:55;8.37;;;5.23;;
20230;SDS011;10274;49.022;9.338;2022-12-13T02:55:23;7.13;;;4.93;;
20230;SDS011;10274;49.022;9.338;2022-12-13T02:57:50;7.50;;;4.83;;
20230;SDS011;10274;49.022;9.338;2022-12-13T03:00:18;6.33;;;4.83;;
20230;SDS011;10274;49.022;9.338;2022-12-13T03:02:54;8.67;;;5.00;;
20230;SDS011;10274;49.022;9.338;2022-12-13T03:05:38;7.83;;;4.80;;
20230;SDS011;10274;49.022;9.338;2022-12-13T03:08:29;8.97;;;5.40;;
20230;SDS011;10274;49.022;9.338;2022-12-13T03:11:05;9.63;;;5.07;;
20230;SDS011;10274;49.022;9.338;2022-12-13T03:13:37;7.90;;;4.87;;
20230;SDS011;10274;49.022;9.338;2022-12-13T03:16:12;8.57;;;5.40;;
20230;SDS011;10274;49.022;9.338;2022-12-13T03:18:47;7.30;;;4.90;;
20230;SDS011;10274;49.022;9.338;2022-12-13T03:21:16;9.13;;;5.77;;
20230;SDS011;10274;49.022;9.338;2022-12-13T03:23:44;7.03;;;5.10;;
20230;SDS011;10274;49.022;9.338;2022-12-13T03:26:11;7.40;;;4.47;;
20230;SDS011;10274;49.022;9.338;2022-12-13T03:28:41;9.03;;;5.40;;
20230;SDS011;10274;49.022;9.338;2022-12-13T03:31:08;7.53;;;4.80;;
20230;SDS011;10274;49.022;9.338;2022-12-13T03:33:35;7.73;;;5.17;;
20230;SDS011;10274;49.022;9.338;2022-12-13T03:36:04;7.53;;;4.53;;
20230;SDS011;10274;49.022;9.338;2022-12-13T03:38:32;6.43;;;4.47;;
20230;SDS011;10274;49.022;9.338;2022-12-13T03:40:59;5.57;;;4.97;;
20230;SDS011;10274;49.022;9.338;2022-12-13T03:43:28;11.33;;;5.00;;
20230;SDS011;10274;49.022;9.338;2022-12-13T03:45:55;6.10;;;4.10;;
20230;SDS011;10274;49.022;9.338;2022-12-13T03:48:21;6.00;;;4.10;;
20230;SDS011;10274;49.022;9.338;2022-12-13T03:50:49;5.43;;;4.03;;
20230;SDS011;10274;49.022;9.338;2022-12-13T03:53:18;7.60;;;4.47;;
20230;SDS011;10274;49.022;9.338;2022-12-13T03:55:45;7.10;;;4.93;;
20230;SDS011;10274;49.022;9.338;2022-12-13T03:58:12;5.67;;;3.87;;
20230;SDS011;10274;49.022;9.338;2022-12-13T04:00:39;6.80;;;4.37;;
20230;SDS011;10274;49.022;9.338;2022-12-13T04:03:06;5.83;;;3.70;;
20230;SDS011;10274;49.022;9.338;2022-12-13T04:05:33;4.93;;;3.83;;
20230;SDS011;10274;49.022;9.338;2022-12-13T04:08:00;7.90;;;4.63;;
20230;SDS011;10274;49.022;9.338;2022-12-13T04:10:28;9.10;;;4.57;;
20230;SDS011;10274;49.022;9.338;2022-12-13T04:12:55;6.93;;;3.80;;
20230;SDS011;10274;49.022;9.338;2022-12-13T04:15:39;7.53;;;4.53;;
20230;SDS011;10274;49.022;9.338;2022-12-13T04:18:12;8.37;;;4.40;;
20230;SDS011;10274;49.022;9.338;2022-12-13T04:20:39;5.67;;;3.63;;
20230;SDS011;10274;49.022;9.338;2022-12-13T04:23:06;8.10;;;4.57;;
20230;SDS011;10274;49.022;9.338;2022-12-13T04:25:34;6.30;;;4.03;;
20230;SDS011;10274;49.022;9.338;2022-12-13T04:28:01;5.53;;;4.50;;
20230;SDS011;10274;49.022;9.338;2022-12-13T04:30:28;5.70;;;4.20;;
20230;SDS011;10274;49.022;9.338;2022-12-13T04:32:55;7.23;;;4.37;;
20230;SDS011;10274;49.022;9.338;2022-12-13T04:35:22;11.30;;;5.57;;
20230;SDS011;10274;49.022;9.338;2022-12-13T04:37:48;6.70;;;4.90;;
20230;SDS011;10274;49.022;9.338;2022-12-13T04:40:15;5.90;;;4.47;;
20230;SDS011;10274;49.022;9.338;2022-12-13T04:42:43;5.17;;;4.07;;
20230;SDS011;10274;49.022;9.338;2022-12-13T04:45:11;7.60;;;3.93;;
20230;SDS011;10274;49.022;9.338;2022-12-13T04:47:41;7.13;;;4.57;;
20230;SDS011;10274;49.022;9.338;2022-12-13T04:50:08;6.90;;;4.33;;
20230;SDS011;10274;49.022;9.338;2022-12-13T04:52:35;6.90;;;4.60;;
20230;SDS011;10274;49.022;9.338;2022-12-13T04:55:03;6.73;;;4.40;;
20230;SDS011;10274;49.022;9.338;2022-12-13T04:57:31;6.33;;;4.40;;
20230;SDS011;10274;49.022;9.338;2022-12-13T04:59:59;8.20;;;4.70;;
20230;SDS011;10274;49.022;9.338;2022-12-13T05:02:26;7.37;;;4.23;;
20230;SDS011;10274;49.022;9.338;2022-12-13T05:04:53;6.83;;;4.47;;
20230;SDS011;10274;49.022;9.338;2022-12-13T05:07:19;6.03;;;3.77;;
20230;SDS011;10274;49.022;9.338;2022-12-13T05:09:46;6.93;;;4.03;;
20230;SDS011;10274;49.022;9.338;2022-12-13T05:12:13;7.23;;;3.97;;
20230;SDS011;10274;49.022;9.338;2022-12-13T05:14:40;7.60;;;4.60;;
20230;SDS011;10274;49.022;9.338;2022-12-13T05:17:08;5.73;;;3.43;;
20230;SDS011;10274;49.022;9.338;2022-12-13T05:19:35;7.37;;;4.30;;
20230;SDS011;10274;49.022;9.338;2022-12-13T05:22:01;7.33;;;5.17;;
20230;SDS011;10274;49.022;9.338;2022-12-13T05:24:28;6.67;;;4.27;;
20230;SDS011;10274;49.022;9.338;2022-12-13T05:26:56;7.30;;;4.73;;
20230;SDS011;10274;49.022;9.338;2022-12-13T05:29:22;6.27;;;4.43;;
20230;SDS011;10274;49.022;9.338;2022-12-13T05:31:51;4.97;;;3.93;;
20230;SDS011;10274;49.022;9.338;2022-12-13T05:34:19;6.53;;;3.93;;
20230;SDS011;10274;49.022;9.338;2022-12-13T05:36:46;6.27;;;4.43;;
20230;SDS011;10274;49.022;9.338;2022-12-13T05:39:13;6.20;;;4.40;;
20230;SDS011;10274;49.022;9.338;2022-12-13T05:41:39;8.67;;;4.33;;
20230;SDS011;10274;49.022;9.338;2022-12-13T05:44:06;7.73;;;4.47;;
20230;SDS011;10274;49.022;9.338;2022-12-13T05:46:34;5.87;;;4.23;;
20230;SDS011;10274;49.022;9.338;2022-12-13T05:49:01;7.17;;;4.00;;
20230;SDS011;10274;49.022;9.338;2022-12-13T05:51:29;8.43;;;5.40;;
20230;SDS011;10274;49.022;9.338;2022-12-13T05:53:56;7.50;;;4.77;;
20230;SDS011;10274;49.022;9.338;2022-12-13T05:56:23;5.83;;;4.03;;
20230;SDS011;10274;49.022;9.338;2022-12-13T05:58:50;5.37;;;3.40;;
20230;SDS011;10274;49.022;9.338;2022-12-13T06:01:18;7.93;;;4.07;;
20230;SDS011;10274;49.022;9.338;2022-12-13T06:03:45;7.60;;;4.43;;
20230;SDS011;10274;49.022;9.338;2022-12-13T06:06:12;6.53;;;3.47;;
20230;SDS011;10274;49.022;9.338;2022-12-13T06:08:42;7.17;;;4.20;;
20230;SDS011;10274;49.022;9.338;2022-12-13T06:11:10;5.53;;;4.10;;
20230;SDS011;10274;49.022;9.338;2022-12-13T06:13:38;5.80;;;3.97;;
20230;SDS011;10274;49.022;9.338;2022-12-13T06:16:05;6.77;;;3.77;;
20230;SDS011;10274;49.022;9.338;2022-12-13T06:18:33;7.40;;;4.83;;
20230;SDS011;10274;49.022;9.338;2022-12-13T06:21:01;6.63;;;4.10;;
20230;SDS011;10274;49.022;9.338;2022-12-13T06:23:30;8.07;;;4.63;;
20230;SDS011;10274;49.022;9.338;2022-12-13T06:26:02;8.30;;;5.13;;
20230;SDS011;10274;49.022;9.338;2022-12-13T06:28:29;7.53;;;4.73;;
20230;SDS011;10274;49.022;9.338;2022-12-13T06:30:57;7.43;;;4.70;;
20230;SDS011;10274;49.022;9.338;2022-12-13T06:33:24;5.97;;;4.20;;
20230;SDS011;10274;49.022;9.338;2022-12-13T06:35:54;9.07;;;4.30;;
20230;SDS011;10274;49.022;9.338;2022-12-13T06:38:21;5.73;;;4.03;;
20230;SDS011;10274;49.022;9.338;2022-12-13T06:40:48;9.57;;;4.80;;
20230;SDS011;10274;49.022;9.338;2022-12-13T06:43:16;7.00;;;4.17;;
20230;SDS011;10274;49.022;9.338;2022-12-13T06:45:43;7.73;;;4.50;;
20230;SDS011;10274;49.022;9.338;2022-12-13T06:48:10;10.73;;;5.90;;
20230;SDS011;10274;49.022;9.338;2022-12-13T06:50:37;10.73;;;5.97;;
20230;SDS011;10274;49.022;9.338;2022-12-13T06:53:04;8.10;;;5.67;;
20230;SDS011;10274;49.022;9.338;2022-12-13T06:55:30;7.70;;;4.73;;
20230;SDS011;10274;49.022;9.338;2022-12-13T06:57:57;8.27;;;5.47;;
20230;SDS011;10274;49.022;9.338;2022-12-13T07:00:25;7.37;;;5.30;;
20230;SDS011;10274;49.022;9.338;2022-12-13T07:02:52;8.17;;;3.87;;
20230;SDS011;10274;49.022;9.338;2022-12-13T07:05:19;6.47;;;4.27;;
20230;SDS011;10274;49.022;9.338;2022-12-13T07:07:46;5.97;;;3.90;;
20230;SDS011;10274;49.022;9.338;2022-12-13T07:10:13;6.13;;;4.40;;
20230;SDS011;10274;49.022;9.338;2022-12-13T07:12:39;10.70;;;5.63;;
20230;SDS011;10274;49.022;9.338;2022-12-13T07:15:06;6.83;;;4.00;;
20230;SDS011;10274;49.022;9.338;2022-12-13T07:17:35;9.17;;;4.73;;
20230;SDS011;10274;49.022;9.338;2022-12-13T07:20:03;9.07;;;5.20;;
20230;SDS011;10274;49.022;9.338;2022-12-13T07:22:33;8.80;;;4.10;;
20230;SDS011;10274;49.022;9.338;2022-12-13T07:25:00;6.77;;;4.23;;
20230;SDS011;10274;49.022;9.338;2022-12-13T07:27:28;7.93;;;4.77;;
20230;SDS011;10274;49.022;9.338;2022-12-13T07:29:55;8.53;;;4.87;;
20230;SDS011;10274;49.022;9.338;2022-12-13T07:32:22;7.80;;;4.63;;
20230;SDS011;10274;49.022;9.338;2022-12-13T07:34:51;7.87;;;4.80;;
20230;SDS011;10274;49.022;9.338;2022-12-13T07:37:17;7.00;;;4.60;;
20230;SDS011;10274;49.022;9.338;2022-12-13T07:39:45;7.07;;;4.90;;
20230;SDS011;10274;49.022;9.338;2022-12-13T07:42:12;6.43;;;4.30;;
20230;SDS011;10274;49.022;9.338;2022-12-13T07:44:38;8.07;;;4.70;;
20230;SDS011;10274;49.022;9.338;2022-12-13T07:47:05;6.53;;;4.83;;
20230;SDS011;10274;49.022;9.338;2022-12-13T07:49:32;7.83;;;4.70;;
20230;SDS011;10274;49.022;9.338;2022-12-13T07:52:01;8.17;;;5.47;;
20230;SDS011;10274;49.022;9.338;2022-12-13T07:54:27;6.53;;;4.57;;
20230;SDS011;10274;49.022;9.338;2022-12-13T07:56:54;6.23;;;3.70;;
20230;SDS011;10274;49.022;9.338;2022-12-13T07:59:21;8.33;;;5.17;;
20230;SDS011;10274;49.022;9.338;2022-12-13T08:01:47;6.00;;;4.10;;
20230;SDS011;10274;49.022;9.338;2022-12-13T08:04:14;7.73;;;5.17;;
20230;SDS011;10274;49.022;9.338;2022-12-13T08:06:41;6.03;;;4.50;;
20230;SDS011;10274;49.022;9.338;2022-12-13T08:09:09;7.37;;;4.40;;
20230;SDS011;10274;49.022;9.338;2022-12-13T08:11:35;7.00;;;4.07;;
20230;SDS011;10274;49.022;9.338;2022-12-13T08:14:02;6.37;;;4.53;;
20230;SDS011;10274;49.022;9.338;2022-12-13T08:16:30;8.00;;;4.17;;
20230;SDS011;10274;49.022;9.338;2022-12-13T08:18:57;4.47;;;3.80;;
20230;SDS011;10274;49.022;9.338;2022-12-13T08:21:24;7.60;;;4.37;;
20230;SDS011;10274;49.022;9.338;2022-12-13T08:23:51;6.73;;;4.07;;
20230;SDS011;10274;49.022;9.338;2022-12-13T08:26:19;4.60;;;2.93;;
20230;SDS011;10274;49.022;9.338;2022-12-13T08:28:47;3.40;;;2.37;;
20230;SDS011;10274;49.022;9.338;2022-12-13T08:31:14;4.67;;;2.97;;
20230;SDS011;10274;49.022;9.338;2022-12-13T08:33:41;4.23;;;3.00;;
20230;SDS011;10274;49.022;9.338;2022-12-13T08:36:11;5.50;;;3.57;;
20230;SDS011;10274;49.022;9.338;2022-12-13T08:38:40;5.20;;;2.67;;
20230;SDS011;10274;49.022;9.338;2022-12-13T08:41:07;3.30;;;2.57;;
20230;SDS011;10274;49.022;9.338;2022-12-13T08:43:36;4.17;;;3.43;;
20230;SDS011;10274;49.022;9.338;2022-12-13T08:46:03;6.70;;;2.97;;
20230;SDS011;10274;49.022;9.338;2022-12-13T08:48:30;5.13;;;2.87;;
20230;SDS011;10274;49.022;9.338;2022-12-13T08:50:58;4.40;;;3.03;;
20230;SDS011;10274;49.022;9.338;2022-12-13T08:53:26;4.77;;;2.83;;
20230;SDS011;10274;49.022;9.338;2022-12-13T08:55:53;3.93;;;2.83;;
20230;SDS011;10274;49.022;9.338;2022-12-13T08:58:19;3.40;;;3.07;;
20230;SDS011;10274;49.022;9.338;2022-12-13T09:00:48;2.80;;;2.17;;
20230;SDS011;10274;49.022;9.338;2022-12-13T09:03:14;4.83;;;3.03;;
20230;SDS011;10274;49.022;9.338;2022-12-13T09:05:41;3.27;;;1.90;;
20230;SDS011;10274;49.022;9.338;2022-12-13T09:08:08;3.57;;;2.37;;
20230;SDS011;10274;49.022;9.338;2022-12-13T09:10:35;3.43;;;2.67;;
20230;SDS011;10274;49.022;9.338;2022-12-13T09:13:01;4.97;;;3.20;;
20230;SDS011;10274;49.022;9.338;2022-12-13T09:15:29;8.20;;;2.60;;
20230;SDS011;10274;49.022;9.338;2022-12-13T09:17:58;5.33;;;2.47;;
20230;SDS011;10274;49.022;9.338;2022-12-13T09:20:25;3.40;;;2.90;;
20230;SDS011;10274;49.022;9.338;2022-12-13T09:22:52;3.70;;;2.03;;
20230;SDS011;10274;49.022;9.338;2022-12-13T09:25:19;4.47;;;2.50;;
20230;SDS011;10274;49.022;9.338;2022-12-13T09:27:46;3.33;;;2.97;;
20230;SDS011;10274;49.022;9.338;2022-12-13T09:30:13;3.60;;;2.13;;
20230;SDS011;10274;49.022;9.338;2022-12-13T09:32:39;5.90;;;2.80;;
20230;SDS011;10274;49.022;9.338;2022-12-13T09:35:09;5.83;;;2.93;;
20230;SDS011;10274;49.022;9.338;2022-12-13T09:37:35;2.73;;;2.43;;
20230;SDS011;10274;49.022;9.338;2022-12-13T09:40:03;3.77;;;2.93;;
20230;SDS011;10274;49.022;9.338;2022-12-13T09:42:30;4.13;;;2.43;;
20230;SDS011;10274;49.022;9.338;2022-12-13T09:45:00;3.93;;;2.13;;
20230;SDS011;10274;49.022;9.338;2022-12-13T09:47:30;2.83;;;2.37;;
20230;SDS011;10274;49.022;9.338;2022-12-13T09:50:00;6.40;;;3.67;;
20230;SDS011;10274;49.022;9.338;2022-12-13T09:52:34;4.20;;;2.80;;
20230;SDS011;10274;49.022;9.338;2022-12-13T09:55:13;5.20;;;2.67;;
20230;SDS011;10274;49.022;9.338;2022-12-13T09:57:44;2.83;;;2.37;;
20230;SDS011;10274;49.022;9.338;2022-12-13T10:00:13;4.50;;;2.23;;
20230;SDS011;10274;49.022;9.338;2022-12-13T10:02:42;3.93;;;2.30;;
20230;SDS011;10274;49.022;9.338;2022-12-13T10:05:15;3.50;;;2.60;;
20230;SDS011;10274;49.022;9.338;2022-12-13T10:07:53;3.50;;;2.50;;
20230;SDS011;10274;49.022;9.338;2022-12-13T10:10:23;2.83;;;2.17;;
20230;SDS011;10274;49.022;9.338;2022-12-13T10:12:52;4.30;;;2.77;;
20230;SDS011;10274;49.022;9.338;2022-12-13T10:15:23;3.87;;;2.77;;
20230;SDS011;10274;49.022;9.338;2022-12-13T10:17:51;5.77;;;2.73;;
20230;SDS011;10274;49.022;9.338;2022-12-13T10:20:18;3.03;;;2.63;;
20230;SDS011;10274;49.022;9.338;2022-12-13T10:22:49;3.43;;;2.30;;
20230;SDS011;10274;49.022;9.338;2022-12-13T10:25:17;2.63;;;2.43;;
20230;SDS011;10274;49.022;9.338;2022-12-13T10:28:09;5.07;;;3.20;;
20230;SDS011;10274;49.022;9.338;2022-12-13T10:30:38;2.53;;;2.03;;
20230;SDS011;10274;49.022;9.338;2022-12-13T10:33:17;2.73;;;2.10;;
20230;SDS011;10274;49.022;9.338;2022-12-13T10:36:00;4.20;;;2.23;;
20230;SDS011;10274;49.022;9.338;2022-12-13T10:38:29;4.23;;;1.80;;
20230;SDS011;10274;49.022;9.338;2022-12-13T10:41:00;3.70;;;2.40;;
20230;SDS011;10274;49.022;9.338;2022-12-13T10:43:28;3.83;;;2.30;;
20230;SDS011;10274;49.022;9.338;2022-12-13T10:45:56;5.97;;;2.20;;
20230;SDS011;10274;49.022;9.338;2022-12-13T10:48:26;2.47;;;2.20;;
20230;SDS011;10274;49.022;9.338;2022-12-13T10:51:00;2.93;;;1.60;;
20230;SDS011;10274;49.022;9.338;2022-12-13T10:53:29;2.27;;;2.03;;
20230;SDS011;10274;49.022;9.338;2022-12-13T10:55:58;3.00;;;1.90;;
20230;SDS011;10274;49.022;9.338;2022-12-13T10:58:34;3.63;;;2.13;;
20230;SDS011;10274;49.022;9.338;2022-12-13T11:01:07;5.30;;;2.67;;
20230;SDS011;10274;49.022;9.338;2022-12-13T11:03:35;4.53;;;2.93;;
20230;SDS011;10274;49.022;9.338;2022-12-13T11:06:03;3.47;;;2.30;;
20230;SDS011;10274;49.022;9.338;2022-12-13T11:08:31;2.77;;;2.30;;
20230;SDS011;10274;49.022;9.338;2022-12-13T11:10:59;3.90;;;2.40;;
20230;SDS011;10274;49.022;9.338;2022-12-13T11:13:30;2.90;;;2.40;;
20230;SDS011;10274;49.022;9.338;2022-12-13T11:16:03;3.90;;;2.30;;
20230;SDS011;10274;49.022;9.338;2022-12-13T11:18:42;3.03;;;2.17;;
20230;SDS011;10274;49.022;9.338;2022-12-13T11:21:15;3.57;;;2.77;;
20230;SDS011;10274;49.022;9.338;2022-12-13T11:23:49;3.90;;;2.50;;
20230;SDS011;10274;49.022;9.338;2022-12-13T11:26:17;5.33;;;2.87;;
20230;SDS011;10274;49.022;9.338;2022-12-13T11:28:57;4.10;;;2.67;;
20230;SDS011;10274;49.022;9.338;2022-12-13T11:31:35;3.77;;;2.53;;
20230;SDS011;10274;49.022;9.338;2022-12-13T11:34:14;3.73;;;2.50;;
20230;SDS011;10274;49.022;9.338;2022-12-13T11:36:48;5.17;;;2.93;;
20230;SDS011;10274;49.022;9.338;2022-12-13T11:39:23;6.13;;;3.17;;
20230;SDS011;10274;49.022;9.338;2022-12-13T11:41:54;4.13;;;3.17;;
20230;SDS011;10274;49.022;9.338;2022-12-13T11:44:28;4.90;;;2.53;;
20230;SDS011;10274;49.022;9.338;2022-12-13T11:47:03;5.33;;;3.17;;
20230;SDS011;10274;49.022;9.338;2022-12-13T11:49:36;5.80;;;3.30;;
20230;SDS011;10274;49.022;9.338;2022-12-13T11:52:08;4.27;;;3.13;;
20230;SDS011;10274;49.022;9.338;2022-12-13T11:54:42;4.40;;;3.37;;
20230;SDS011;10274;49.022;9.338;2022-12-13T11:57:19;5.87;;;3.30;;
20230;SDS011;10274;49.022;9.338;2022-12-13T11:59:57;3.87;;;2.77;;
20230;SDS011;10274;49.022;9.338;2022-12-13T12:02:31;3.43;;;2.53;;
20230;SDS011;10274;49.022;9.338;2022-12-13T12:05:01;4.23;;;2.90;;
20230;SDS011;10274;49.022;9.338;2022-12-13T12:07:32;7.50;;;3.50;;
20230;SDS011;10274;49.022;9.338;2022-12-13T12:10:10;4.30;;;3.00;;
20230;SDS011;10274;49.022;9.338;2022-12-13T12:12:49;4.83;;;2.80;;
20230;SDS011;10274;49.022;9.338;2022-12-13T12:15:23;6.20;;;3.27;;
20230;SDS011;10274;49.022;9.338;2022-12-13T12:17:54;5.77;;;3.77;;
20230;SDS011;10274;49.022;9.338;2022-12-13T12:20:24;6.10;;;2.90;;
20230;SDS011;10274;49.022;9.338;2022-12-13T12:23:10;4.43;;;2.70;;
20230;SDS011;10274;49.022;9.338;2022-12-13T12:25:46;3.73;;;2.77;;
20230;SDS011;10274;49.022;9.338;2022-12-13T12:28:23;5.23;;;3.57;;
20230;SDS011;10274;49.022;9.338;2022-12-13T12:30:59;6.60;;;3.13;;
20230;SDS011;10274;49.022;9.338;2022-12-13T12:33:36;2.77;;;2.27;;
20230;SDS011;10274;49.022;9.338;2022-12-13T12:36:17;8.87;;;2.97;;
20230;SDS011;10274;49.022;9.338;2022-12-13T12:39:03;4.63;;;3.20;;
20230;SDS011;10274;49.022;9.338;2022-12-13T12:42:04;5.23;;;3.07;;
20230;SDS011;10274;49.022;9.338;2022-12-13T12:45:03;3.70;;;2.37;;
20230;SDS011;10274;49.022;9.338;2022-12-13T12:47:43;3.97;;;2.77;;
20230;SDS011;10274;49.022;9.338;2022-12-13T12:50:24;3.40;;;2.60;;
20230;SDS011;10274;49.022;9.338;2022-12-13T12:53:10;2.93;;;2.50;;
20230;SDS011;10274;49.022;9.338;2022-12-13T12:55:54;3.93;;;2.23;;
20230;SDS011;10274;49.022;9.338;2022-12-13T12:58:29;4.50;;;2.47;;
20230;SDS011;10274;49.022;9.338;2022-12-13T13:01:05;6.30;;;2.87;;
20230;SDS011;10274;49.022;9.338;2022-12-13T13:03:41;4.37;;;2.67;;
20230;SDS011;10274;49.022;9.338;2022-12-13T13:06:10;4.23;;;2.40;;
20230;SDS011;10274;49.022;9.338;2022-12-13T13:08:42;3.80;;;2.20;;
20230;SDS011;10274;49.022;9.338;2022-12-13T13:11:12;3.33;;;2.43;;
20230;SDS011;10274;49.022;9.338;2022-12-13T13:13:43;3.43;;;2.53;;
20230;SDS011;10274;49.022;9.338;2022-12-13T13:18:55;2.60;;;2.00;;
20230;SDS011;10274;49.022;9.338;2022-12-13T13:21:30;3.20;;;2.50;;
20230;SDS011;10274;49.022;9.338;2022-12-13T13:24:12;3.20;;;2.50;;
20230;SDS011;10274;49.022;9.338;2022-12-13T13:26:41;4.60;;;2.70;;
20230;SDS011;10274;49.022;9.338;2022-12-13T13:29:19;5.53;;;1.87;;
20230;SDS011;10274;49.022;9.338;2022-12-13T13:31:55;3.43;;;2.20;;
20230;SDS011;10274;49.022;9.338;2022-12-13T13:34:25;3.93;;;2.10;;
20230;SDS011;10274;49.022;9.338;2022-12-13T13:36:54;2.93;;;2.13;;
20230;SDS011;10274;49.022;9.338;2022-12-13T13:42:24;2.97;;;2.10;;
20230;SDS011;10274;49.022;9.338;2022-12-13T13:47:51;2.80;;;2.00;;
20230;SDS011;10274;49.022;9.338;2022-12-13T13:50:54;3.30;;;2.23;;
20230;SDS011;10274;49.022;9.338;2022-12-13T13:54:02;3.53;;;2.03;;
20230;SDS011;10274;49.022;9.338;2022-12-13T13:56:50;3.87;;;1.97;;
20230;SDS011;10274;49.022;9.338;2022-12-13T14:02:49;4.80;;;3.03;;
20230;SDS011;10274;49.022;9.338;2022-12-13T14:09:01;3.30;;;2.20;;
20230;SDS011;10274;49.022;9.338;2022-12-13T14:15:05;4.07;;;2.73;;
20230;SDS011;10274;49.022;9.338;2022-12-13T14:18:12;3.33;;;2.17;;
20230;SDS011;10274;49.022;9.338;2022-12-13T14:21:08;2.90;;;2.53;;
20230;SDS011;10274;49.022;9.338;2022-12-13T14:23:45;3.73;;;2.27;;
20230;SDS011;10274;49.022;9.338;2022-12-13T14:26:34;3.87;;;2.07;;
20230;SDS011;10274;49.022;9.338;2022-12-13T14:29:10;3.53;;;2.33;;
20230;SDS011;10274;49.022;9.338;2022-12-13T14:31:39;3.27;;;1.90;;
20230;SDS011;10274;49.022;9.338;2022-12-13T14:34:14;3.97;;;2.40;;
20230;SDS011;10274;49.022;9.338;2022-12-13T14:36:52;3.23;;;2.43;;
20230;SDS011;10274;49.022;9.338;2022-12-13T14:39:20;3.67;;;2.53;;
20230;SDS011;10274;49.022;9.338;2022-12-13T14:41:50;3.83;;;3.03;;
20230;SDS011;10274;49.022;9.338;2022-12-13T14:44:20;3.27;;;2.37;;
20230;SDS011;10274;49.022;9.338;2022-12-13T14:46:51;2.67;;;1.90;;
20230;SDS011;10274;49.022;9.338;2022-12-13T14:49:20;4.73;;;2.87;;
20230;SDS011;10274;49.022;9.338;2022-12-13T14:51:49;5.00;;;2.50;;
20230;SDS011;10274;49.022;9.338;2022-12-13T14:54:25;5.13;;;2.50;;
20230;SDS011;10274;49.022;9.338;2022-12-13T14:56:57;3.07;;;2.37;;
20230;SDS011;10274;49.022;9.338;2022-12-13T14:59:25;4.67;;;3.13;;
20230;SDS011;10274;49.022;9.338;2022-12-13T15:01:53;5.70;;;2.80;;
20230;SDS011;10274;49.022;9.338;2022-12-13T15:04:24;5.47;;;2.73;;
20230;SDS011;10274;49.022;9.338;2022-12-13T15:06:54;4.40;;;2.43;;
20230;SDS011;10274;49.022;9.338;2022-12-13T15:09:24;3.13;;;2.40;;
20230;SDS011;10274;49.022;9.338;2022-12-13T15:11:51;3.43;;;2.80;;
20230;SDS011;10274;49.022;9.338;2022-12-13T15:14:21;3.30;;;2.53;;
20230;SDS011;10274;49.022;9.338;2022-12-13T15:16:51;3.73;;;2.63;;
20230;SDS011;10274;49.022;9.338;2022-12-13T15:19:21;4.23;;;3.10;;
20230;SDS011;10274;49.022;9.338;2022-12-13T15:21:54;3.50;;;2.67;;
20230;SDS011;10274;49.022;9.338;2022-12-13T15:24:25;5.20;;;2.70;;
20230;SDS011;10274;49.022;9.338;2022-12-13T15:26:54;4.03;;;2.50;;
20230;SDS011;10274;49.022;9.338;2022-12-13T15:29:23;6.23;;;3.40;;